Time;durP1;ratioP1;P1;durP2;ratioP2;P2;SDS_P1;SDS_P2;PMS_P1;PMS_P2;Temp;Humidity;BMP_temperature;BMP_pressure;BME280_temperature;BME280_humidity;BME280_pressure;Samples;Min_cycle;Max_cycle;Signal;HPM_P1;HPM_P2
2023/08/05 00:00:10;;;;;;;10.57;7.18;;;;;;;20.30;94.37;99304.13;5052151;28;20384;-82
2023/08/05 00:02:36;;;;;;;10.90;8.35;;;;;;;20.12;94.38;99264.38;5052670;28;20031;-82
2023/08/05 00:05:01;;;;;;;9.27;7.68;;;;;;;20.24;94.26;99294.97;5051880;28;20058;-82
2023/08/05 00:07:27;;;;;;;10.23;8.38;;;;;;;20.15;94.44;99290.53;5051866;28;20473;-82
2023/08/05 00:09:52;;;;;;;10.75;8.07;;;;;;;20.00;94.68;99257.56;5052143;28;20032;-82
2023/08/05 00:12:17;;;;;;;12.35;9.77;;;;;;;20.14;94.67;99288.84;5052220;28;20025;-81
2023/08/05 00:14:43;;;;;;;12.02;8.60;;;;;;;19.97;94.92;99271.06;5051776;28;20057;-82
2023/08/05 00:17:08;;;;;;;11.88;9.18;;;;;;;19.92;95.04;99271.47;5052044;28;20028;-82
2023/08/05 00:19:33;;;;;;;10.43;8.02;;;;;;;19.84;95.30;99266.06;5051769;28;20464;-82
2023/08/05 00:21:59;;;;;;;8.90;7.65;;;;;;;19.95;95.21;99281.78;5051438;28;20026;-82
2023/08/05 00:24:24;;;;;;;10.05;7.43;;;;;;;19.97;94.96;99274.53;5033898;28;20071;-82
2023/08/05 00:26:49;;;;;;;7.90;7.10;;;;;;;19.94;94.68;99275.66;5051617;28;20053;-82
2023/08/05 00:29:14;;;;;;;10.82;7.88;;;;;;;19.97;94.50;99282.47;5051865;28;20384;-82
2023/08/05 00:31:40;;;;;;;8.90;7.97;;;;;;;19.97;95.16;99279.81;5052033;28;20028;-82
2023/08/05 00:34:05;;;;;;;11.15;8.07;;;;;;;19.92;95.62;99284.69;5051663;28;20052;-82
2023/08/05 00:36:30;;;;;;;8.43;7.45;;;;;;;19.83;95.98;99278.44;5051679;28;20021;-82
2023/08/05 00:38:56;;;;;;;12.50;8.38;;;;;;;19.75;95.91;99262.44;5051612;28;20029;-82
2023/08/05 00:41:21;;;;;;;10.32;7.25;;;;;;;19.81;96.31;99276.94;5051744;28;20450;-82
2023/08/05 00:43:46;;;;;;;10.00;7.63;;;;;;;19.69;96.01;99249.81;5051434;28;20086;-82
2023/08/05 00:46:13;;;;;;;10.48;7.60;;;;;;;19.80;96.18;99267.31;5051339;28;20045;-82
2023/08/05 00:48:38;;;;;;;10.05;9.00;;;;;;;19.85;96.43;99284.44;5051784;28;20079;-82
2023/08/05 00:51:07;;;;;;;10.40;8.30;;;;;;;19.74;96.98;99270.53;5033388;28;20025;-82
2023/08/05 00:53:35;;;;;;;8.13;7.25;;;;;;;19.76;96.77;99271.22;5051434;28;20025;-82
2023/08/05 00:56:01;;;;;;;12.57;8.93;;;;;;;19.82;97.04;99276.78;5051346;28;20132;-82
2023/08/05 00:58:28;;;;;;;9.32;8.32;;;;;;;19.77;97.10;99275.53;5051579;28;20036;-82
2023/08/05 01:00:53;;;;;;;10.27;8.65;;;;;;;19.63;97.16;99253.81;5055092;28;20021;-82
2023/08/05 01:03:19;;;;;;;12.00;9.48;;;;;;;19.69;97.44;99271.78;5055170;28;20035;-82
2023/08/05 01:05:49;;;;;;;14.50;9.60;;;;;;;19.50;97.30;99249.75;5055209;28;20021;-82
2023/08/05 01:08:15;;;;;;;11.15;9.82;;;;;;;19.69;97.46;99278.88;5055246;28;20025;-82
2023/08/05 01:10:41;;;;;;;9.75;8.68;;;;;;;19.66;97.69;99274.69;5055090;28;20515;-82
2023/08/05 01:13:07;;;;;;;14.00;9.40;;;;;;;19.47;97.94;99245.59;5054779;28;20057;-82
2023/08/05 01:15:32;;;;;;;11.13;9.88;;;;;;;19.57;98.44;99266.72;5054972;28;20529;-82
2023/08/05 01:17:59;;;;;;;11.85;9.52;;;;;;;19.58;98.79;99271.03;5054579;28;20055;-82
2023/08/05 01:20:32;;;;;;;11.30;9.40;;;;;;;19.49;98.95;99269.22;5054709;28;20017;-82
2023/08/05 01:23:07;;;;;;;9.40;8.52;;;;;;;19.48;99.06;99268.41;5054897;28;20029;-82
2023/08/05 01:25:33;;;;;;;11.52;10.30;;;;;;;19.49;99.17;99261.31;5054716;28;20477;-82
2023/08/05 01:28:00;;;;;;;14.60;10.20;;;;;;;19.32;98.53;99245.16;5054505;28;20032;-82
2023/08/05 01:30:27;;;;;;;10.95;9.15;;;;;;;19.22;98.17;99233.75;5054604;28;20454;-82
2023/08/05 01:32:54;;;;;;;9.45;8.55;;;;;;;19.32;98.61;99250.44;5054225;28;20025;-82
2023/08/05 01:35:23;;;;;;;9.05;8.15;;;;;;;19.22;98.25;99236.41;5054670;28;20052;-82
2023/08/05 01:37:49;;;;;;;13.50;9.07;;;;;;;19.13;97.90;99205.50;5054534;28;20060;-82
2023/08/05 01:40:15;;;;;;;10.43;8.57;;;;;;;19.30;97.44;99236.56;5054248;28;20025;-82
2023/08/05 01:42:40;;;;;;;12.50;8.68;;;;;;;19.26;97.93;99221.94;5054221;28;20412;-82
2023/08/05 01:45:06;;;;;;;13.85;8.52;;;;;;;19.30;98.04;99231.28;5053874;28;20028;-82
2023/08/05 01:47:32;;;;;;;14.15;10.18;;;;;;;19.21;97.44;99213.59;5054521;28;20052;-82
2023/08/05 01:49:57;;;;;;;11.20;9.07;;;;;;;19.39;97.69;99248.09;5054137;28;20472;-82
2023/08/05 01:52:23;;;;;;;14.20;9.63;;;;;;;19.33;97.61;99233.63;5054189;28;20083;-82
2023/08/05 01:54:48;;;;;;;11.52;10.07;;;;;;;19.25;98.29;99230.00;5054270;28;20526;-82
2023/08/05 01:57:13;;;;;;;10.07;9.07;;;;;;;19.20;98.61;99231.22;5053862;28;20021;-82
2023/08/05 01:59:39;;;;;;;12.15;9.68;;;;;;;19.25;98.89;99235.28;5053989;28;20053;-82
2023/08/05 02:02:05;;;;;;;12.85;9.73;;;;;;;19.10;99.36;99229.56;5054016;28;20061;-82
2023/08/05 02:04:30;;;;;;;15.10;10.38;;;;;;;19.07;99.60;99237.75;5054148;28;20354;-82
2023/08/05 02:06:55;;;;;;;11.60;9.00;;;;;;;18.91;99.80;99214.50;5052540;28;20029;-82
2023/08/05 02:09:21;;;;;;;13.98;10.48;;;;;;;18.90;99.99;99226.88;5053911;28;20021;-82
2023/08/05 02:11:46;;;;;;;11.50;9.85;;;;;;;18.72;100.00;99183.63;5053135;28;20456;-82
2023/08/05 02:14:12;;;;;;;17.83;11.38;;;;;;;18.90;100.00;99207.56;5053784;28;20044;-82
2023/08/05 02:16:37;;;;;;;12.07;10.20;;;;;;;18.79;100.00;99192.66;5053668;28;20479;-82
2023/08/05 02:19:03;;;;;;;11.77;10.55;;;;;;;18.78;100.00;99206.00;5053831;28;20060;-82
2023/08/05 02:21:28;;;;;;;11.98;10.57;;;;;;;18.93;100.00;99234.53;5053793;28;20032;-81
2023/08/05 02:23:54;;;;;;;14.52;11.43;;;;;;;18.66;100.00;99194.69;5052176;28;20037;-82
2023/08/05 02:26:20;;;;;;;12.15;10.95;;;;;;;18.87;100.00;99223.66;5053539;28;20075;-82
2023/08/05 02:28:46;;;;;;;13.38;11.32;;;;;;;18.91;100.00;99223.25;5053747;28;20029;-82
2023/08/05 02:31:12;;;;;;;14.32;10.88;;;;;;;18.69;100.00;99200.56;5053142;28;20033;-82
2023/08/05 02:33:37;;;;;;;17.15;11.95;;;;;;;18.88;100.00;99218.25;5053602;28;20035;-82
2023/08/05 02:36:03;;;;;;;11.77;10.30;;;;;;;18.88;100.00;99218.25;5053539;28;20025;-82
2023/08/05 02:38:29;;;;;;;15.48;11.20;;;;;;;18.81;100.00;99216.28;5053363;28;20516;-82
2023/08/05 02:40:55;;;;;;;14.30;12.30;;;;;;;18.73;100.00;99210.84;5053348;28;20041;-82
2023/08/05 02:43:21;;;;;;;12.32;10.98;;;;;;;18.69;100.00;99204.97;5053204;28;20107;-82
2023/08/05 02:45:56;;;;;;;16.15;12.65;;;;;;;18.65;100.00;99211.47;5053310;28;20476;-82
2023/08/05 02:48:22;;;;;;;13.10;11.82;;;;;;;18.55;100.00;99200.06;5053271;28;20045;-82
2023/08/05 02:50:49;;;;;;;11.65;10.57;;;;;;;18.55;100.00;99202.72;5053461;28;20511;-82
2023/08/05 02:53:14;;;;;;;14.73;12.98;;;;;;;18.52;100.00;99193.25;5053016;28;20025;-82
2023/08/05 02:55:40;;;;;;;17.30;12.32;;;;;;;18.66;100.00;99211.34;5052979;28;20025;-82
2023/08/05 02:58:06;;;;;;;18.38;12.18;;;;;;;18.67;100.00;99209.56;5051282;28;20036;-82
2023/08/05 03:00:31;;;;;;;15.98;12.30;;;;;;;18.43;100.00;99168.50;5053201;28;20464;-82
2023/08/05 03:02:57;;;;;;;14.48;11.50;;;;;;;18.67;100.00;99201.66;5052674;28;20036;-82
2023/08/05 03:05:22;;;;;;;13.15;10.98;;;;;;;18.64;100.00;99196.63;5053032;28;20052;-82
2023/08/05 03:07:47;;;;;;;13.60;11.95;;;;;;;18.67;100.00;99213.03;5052885;28;20029;-82
2023/08/05 03:10:13;;;;;;;13.70;11.35;;;;;;;18.66;100.00;99215.78;5052466;28;20028;-82
2023/08/05 03:12:38;;;;;;;12.65;11.40;;;;;;;18.72;100.00;99220.56;5052359;28;20144;-82
2023/08/05 03:15:04;;;;;;;14.27;11.73;;;;;;;18.55;100.00;99194.81;5052625;28;20048;-81
2023/08/05 03:17:29;;;;;;;14.75;11.27;;;;;;;18.69;100.00;99212.88;5052712;28;20031;-82
2023/08/05 03:19:55;;;;;;;11.85;10.38;;;;;;;18.52;100.00;99198.53;5052524;28;20032;-82
2023/08/05 03:22:20;;;;;;;13.05;11.27;;;;;;;18.52;100.00;99203.81;5052341;28;20032;-81
2023/08/05 03:24:45;;;;;;;12.90;11.60;;;;;;;18.64;100.00;99223.00;5052582;28;20031;-82
2023/08/05 03:27:11;;;;;;;11.93;10.25;;;;;;;18.71;100.00;99237.38;5052146;28;20024;-82
2023/08/05 03:29:36;;;;;;;12.45;10.90;;;;;;;18.52;100.00;99216.16;5052606;28;20067;-82
2023/08/05 03:32:01;;;;;;;14.55;10.48;;;;;;;18.64;100.00;99239.66;5050934;28;20048;-82
2023/08/05 03:34:27;;;;;;;14.82;11.48;;;;;;;18.42;100.00;99208.22;5052310;28;20029;-81
2023/08/05 03:36:55;;;;;;;13.68;10.05;;;;;;;18.63;100.00;99242.44;5052209;28;20116;-82
2023/08/05 03:39:20;;;;;;;14.00;10.93;;;;;;;18.43;100.00;99213.34;5052138;28;20029;-82
2023/08/05 03:41:46;;;;;;;13.68;11.55;;;;;;;18.45;100.00;99221.09;5052484;28;20028;-82
2023/08/05 03:44:11;;;;;;;12.48;9.82;;;;;;;18.35;100.00;99196.50;5051709;28;20029;-82
2023/08/05 03:46:37;;;;;;;11.20;10.10;;;;;;;18.35;100.00;99192.06;5052349;28;20021;-82
2023/08/05 03:49:06;;;;;;;14.27;11.02;;;;;;;18.54;100.00;99225.63;5052046;28;20033;-81
2023/08/05 03:51:32;;;;;;;13.50;10.55;;;;;;;18.45;100.00;99214.03;5052505;28;20098;-82
2023/08/05 03:53:57;;;;;;;12.88;11.15;;;;;;;18.52;100.00;99224.06;5052065;28;20033;-81
2023/08/05 03:56:26;;;;;;;11.27;10.05;;;;;;;18.55;100.00;99223.81;5033830;28;20021;-81
2023/08/05 03:58:52;;;;;;;13.27;10.85;;;;;;;18.52;100.00;99216.16;5051941;28;20460;-81
2023/08/05 04:01:19;;;;;;;15.32;10.90;;;;;;;18.30;100.00;99186.38;5052206;28;20032;-81
2023/08/05 04:03:44;;;;;;;16.23;10.35;;;;;;;18.41;100.00;99207.38;5052108;28;20051;-82
2023/08/05 04:06:11;;;;;;;11.73;9.95;;;;;;;18.29;100.00;99181.25;5051780;28;20465;-82
2023/08/05 04:08:38;;;;;;;12.05;10.48;;;;;;;18.38;100.00;99193.63;5052162;28;20033;-82
2023/08/05 04:11:05;;;;;;;16.75;10.30;;;;;;;18.36;100.00;99183.19;5051564;28;20028;-82
2023/08/05 04:13:32;;;;;;;14.38;10.70;;;;;;;18.37;100.00;99195.44;5051715;28;20056;-82
2023/08/05 04:15:59;;;;;;;10.80;9.73;;;;;;;18.29;100.00;99194.41;5051989;28;20021;-82
2023/08/05 04:18:24;;;;;;;14.38;9.80;;;;;;;18.14;100.00;99171.03;5051687;28;20120;-82
2023/08/05 04:20:51;;;;;;;12.23;10.40;;;;;;;18.33;100.00;99203.69;5051879;28;20540;-81
2023/08/05 04:23:20;;;;;;;15.15;10.05;;;;;;;18.27;100.00;99209.50;5051863;28;20041;-82
2023/08/05 04:25:47;;;;;;;15.57;9.18;;;;;;;18.09;100.00;99175.03;5051802;28;20048;-82
2023/08/05 04:28:12;;;;;;;11.23;9.23;;;;;;;18.02;100.00;99165.97;5051900;28;20036;-81
2023/08/05 04:30:38;;;;;;;11.75;9.20;;;;;;;18.00;100.00;99171.38;5052134;28;20021;-81
2023/08/05 04:33:03;;;;;;;10.80;9.75;;;;;;;17.91;100.00;99167.72;5051679;28;20037;-81
2023/08/05 04:35:28;;;;;;;15.77;9.57;;;;;;;18.01;100.00;99180.94;5055264;28;20103;-81
2023/08/05 04:37:53;;;;;;;12.52;9.43;;;;;;;17.94;100.00;99180.63;5055933;28;20021;-82
2023/08/05 04:40:19;;;;;;;15.45;10.52;;;;;;;18.06;100.00;99206.91;5037994;28;20025;-81
2023/08/05 04:42:45;;;;;;;12.15;9.05;;;;;;;18.05;100.00;99213.97;5055179;28;20040;-81
2023/08/05 04:45:11;;;;;;;10.80;9.68;;;;;;;17.85;100.00;99178.75;5058021;28;20033;-81
2023/08/05 04:47:36;;;;;;;14.25;10.32;;;;;;;18.05;100.00;99208.69;5048862;28;20055;-81
2023/08/05 04:50:02;;;;;;;13.18;9.85;;;;;;;17.84;100.00;99178.91;5065771;28;20102;-81
2023/08/05 04:52:27;;;;;;;14.50;10.30;;;;;;;18.06;100.00;99214.81;5066824;28;20084;-81
2023/08/05 04:54:53;;;;;;;10.80;9.65;;;;;;;17.93;100.00;99199.19;5069101;28;20111;-81
2023/08/05 04:57:18;;;;;;;14.05;10.95;;;;;;;17.96;100.00;99204.22;5073105;28;20037;-81
2023/08/05 04:59:44;;;;;;;14.35;10.55;;;;;;;17.85;100.00;99186.66;5071991;28;20507;-82
2023/08/05 05:02:10;;;;;;;11.60;10.40;;;;;;;17.89;100.00;99187.25;5063164;28;20499;-82
2023/08/05 05:04:35;;;;;;;10.38;9.27;;;;;;;18.14;100.00;99225.53;5055638;28;20025;-81
2023/08/05 05:07:01;;;;;;;13.48;11.23;;;;;;;18.03;100.00;99202.72;5055307;28;20033;-81
2023/08/05 05:09:27;;;;;;;20.55;16.33;;;;;;;18.15;100.00;99224.56;5054886;28;20040;-81
2023/08/05 05:11:53;;;;;;;24.65;19.48;;;;;;;18.04;100.00;99190.41;5053912;28;20548;-81
2023/08/05 05:14:20;;;;;;;29.85;24.45;;;;;;;17.99;100.00;99182.03;5054685;28;20106;-82
2023/08/05 05:16:45;;;;;;;21.92;18.92;;;;;;;18.16;100.00;99226.22;5055142;28;20025;-82
2023/08/05 05:19:10;;;;;;;13.90;12.35;;;;;;;17.91;100.00;99191.44;5053363;28;20135;-81
2023/08/05 05:21:36;;;;;;;11.38;9.80;;;;;;;18.06;100.00;99227.97;5054908;28;20049;-81
2023/08/05 05:24:01;;;;;;;12.25;10.85;;;;;;;17.97;100.00;99216.41;5054601;28;20116;-81
2023/08/05 05:26:26;;;;;;;13.40;11.07;;;;;;;18.02;100.00;99231.84;5054536;28;20074;-81
2023/08/05 05:28:52;;;;;;;15.13;10.60;;;;;;;18.13;100.00;99240.53;5054756;28;20458;-81
2023/08/05 05:31:17;;;;;;;14.60;11.00;;;;;;;18.03;100.00;99226.44;5054512;28;20052;-82
2023/08/05 05:33:47;;;;;;;13.38;10.95;;;;;;;17.88;100.00;99209.28;5054670;28;20479;-81
2023/08/05 05:36:12;;;;;;;12.90;11.55;;;;;;;18.08;100.00;99231.34;5054501;28;20021;-81
2023/08/05 05:38:38;;;;;;;12.38;11.13;;;;;;;18.00;100.00;99217.97;5054522;28;20502;-82
2023/08/05 05:41:03;;;;;;;16.33;12.02;;;;;;;17.98;100.00;99215.44;5054505;28;20021;-81
2023/08/05 05:43:28;;;;;;;12.30;10.73;;;;;;;17.94;100.00;99203.50;5054373;28;20460;-81
2023/08/05 05:45:54;;;;;;;16.70;12.52;;;;;;;17.82;100.00;99179.00;5053202;28;20131;-82
2023/08/05 05:48:20;;;;;;;18.52;11.02;;;;;;;18.15;100.00;99227.19;5054160;28;20562;-81
2023/08/05 05:50:45;;;;;;;12.45;11.07;;;;;;;18.09;100.00;99217.19;5054262;28;20056;-82
2023/08/05 05:53:13;;;;;;;13.30;11.90;;;;;;;17.97;100.00;99200.59;5054405;28;20025;-81
2023/08/05 05:55:45;;;;;;;12.98;11.10;;;;;;;18.12;100.00;99225.69;5054324;28;20025;-81
2023/08/05 05:58:10;;;;;;;14.30;12.15;;;;;;;18.14;100.00;99234.28;5054077;28;20060;-81
2023/08/05 06:00:37;;;;;;;16.08;12.57;;;;;;;17.87;100.00;99192.66;5054237;28;20108;-81
2023/08/05 06:03:03;;;;;;;14.60;12.38;;;;;;;18.16;100.00;99247.31;5054112;28;20068;-82
2023/08/05 06:05:28;;;;;;;16.27;12.05;;;;;;;18.19;100.00;99250.53;5053744;28;20064;-81
2023/08/05 06:07:53;;;;;;;15.05;12.95;;;;;;;18.02;100.00;99223.94;5054272;28;20495;-81
2023/08/05 06:10:19;;;;;;;12.15;10.95;;;;;;;17.94;100.00;99214.88;5053926;28;20477;-81
2023/08/05 06:12:44;;;;;;;25.50;12.27;;;;;;;17.99;100.00;99211.00;5053883;28;20037;-81
2023/08/05 06:15:09;;;;;;;14.40;12.18;;;;;;;18.16;100.00;99231.50;5054008;28;20039;-82
2023/08/05 06:17:35;;;;;;;13.63;11.75;;;;;;;18.00;100.00;99205.63;5053886;28;20033;-82
2023/08/05 06:20:00;;;;;;;17.63;12.10;;;;;;;18.19;100.00;99233.88;5053786;28;20029;-82
2023/08/05 06:22:26;;;;;;;17.20;12.00;;;;;;;17.96;100.00;99188.41;5053777;28;20163;-82
2023/08/05 06:24:51;;;;;;;14.18;12.20;;;;;;;18.34;100.00;99247.59;5053738;28;20053;-82
2023/08/05 06:27:17;;;;;;;13.68;12.23;;;;;;;18.29;100.00;99250.63;5053539;28;20396;-82
2023/08/05 06:29:43;;;;;;;17.25;13.00;;;;;;;18.06;100.00;99223.53;5053665;28;20096;-82
2023/08/05 06:32:08;;;;;;;13.88;12.15;;;;;;;18.27;100.00;99244.63;5053562;28;20032;-81
2023/08/05 06:34:34;;;;;;;14.98;13.07;;;;;;;18.15;100.00;99233.31;5053296;28;20514;-82
2023/08/05 06:36:59;;;;;;;14.98;12.55;;;;;;;18.22;100.00;99238.91;5053380;28;20037;-82
2023/08/05 06:39:25;;;;;;;13.88;12.15;;;;;;;18.33;100.00;99240.63;5053136;28;20033;-82
2023/08/05 06:41:50;;;;;;;14.27;12.27;;;;;;;18.24;100.00;99197.41;5053524;28;20123;-82
2023/08/05 06:44:15;;;;;;;16.38;13.15;;;;;;;18.21;100.00;99187.16;5053158;28;20017;-82
2023/08/05 06:46:41;;;;;;;14.48;12.93;;;;;;;18.42;100.00;99211.69;5053299;28;20029;-82
2023/08/05 06:49:07;;;;;;;16.45;12.98;;;;;;;18.61;100.00;99237.28;5053303;28;20078;-82
2023/08/05 06:51:33;;;;;;;12.73;11.43;;;;;;;18.39;100.00;99196.13;5052814;28;20458;-82
2023/08/05 06:53:58;;;;;;;13.48;11.85;;;;;;;18.64;100.00;99220.38;5053387;28;20108;-81
2023/08/05 06:56:23;;;;;;;18.90;14.50;;;;;;;18.72;100.00;99219.75;5053154;28;20029;-82
2023/08/05 06:58:49;;;;;;;15.32;13.73;;;;;;;18.54;100.00;99204.53;5053188;28;20071;-82
2023/08/05 07:01:15;;;;;;;15.20;12.57;;;;;;;18.51;100.00;99199.50;5052784;28;20029;-82
2023/08/05 07:03:42;;;;;;;19.70;14.05;;;;;;;18.55;100.00;99200.06;5053068;28;20036;-82
2023/08/05 07:06:08;;;;;;;15.73;12.00;;;;;;;18.64;100.00;99208.00;5053044;28;20025;-82
2023/08/05 07:08:33;;;;;;;15.07;12.10;;;;;;;18.68;100.00;99208.59;5052758;28;20025;-82
2023/08/05 07:10:59;;;;;;;15.88;13.40;;;;;;;18.55;100.00;99177.16;5053002;28;20487;-82
2023/08/05 07:13:25;;;;;;;16.08;12.30;;;;;;;18.80;100.00;99214.63;5052688;28;20049;-82
2023/08/05 07:15:51;;;;;;;15.45;12.40;;;;;;;18.89;100.00;99214.66;5052739;28;20035;-82
2023/08/05 07:18:16;;;;;;;21.00;13.45;;;;;;;18.95;100.00;99215.91;5052892;28;20108;-82
2023/08/05 07:20:42;;;;;;;14.85;11.90;;;;;;;18.77;100.00;99177.97;5052765;28;20033;-82
2023/08/05 07:23:07;;;;;;;16.33;11.45;;;;;;;18.83;100.00;99172.13;5052917;28;20029;-81
2023/08/05 07:25:33;;;;;;;15.25;11.98;;;;;;;18.86;100.00;99175.34;5053089;28;20033;-81
2023/08/05 07:27:58;;;;;;;14.93;12.35;;;;;;;19.00;100.00;99197.84;5053368;28;20518;-82
2023/08/05 07:30:23;;;;;;;12.80;11.55;;;;;;;18.95;100.00;99181.59;5052342;28;20419;-82
2023/08/05 07:32:49;;;;;;;14.68;11.88;;;;;;;19.18;100.00;99208.59;5034668;28;20025;-82
2023/08/05 07:35:14;;;;;;;12.40;10.55;;;;;;;19.20;100.00;99202.19;5034282;28;20021;-82
2023/08/05 07:37:42;;;;;;;15.52;11.27;;;;;;;19.13;100.00;99174.69;5052824;28;20029;-82
2023/08/05 07:40:12;;;;;;;12.85;10.43;;;;;;;19.27;100.00;99189.28;5052678;28;20060;-82
2023/08/05 07:42:39;;;;;;;13.63;11.35;;;;;;;19.36;100.00;99198.19;5053070;28;20070;-81
2023/08/05 07:45:10;;;;;;;11.32;10.25;;;;;;;19.42;100.00;99197.63;5057815;28;20464;-81
2023/08/05 07:47:40;;;;;;;13.45;11.15;;;;;;;19.40;100.00;99194.31;5052240;28;20021;-81
2023/08/05 07:50:07;;;;;;;15.73;10.80;;;;;;;19.45;100.00;99192.06;5052778;28;20025;-82
2023/08/05 07:52:33;;;;;;;11.70;10.50;;;;;;;19.42;100.00;99177.34;5052114;28;20029;-81
2023/08/05 07:54:59;;;;;;;13.30;11.75;;;;;;;19.36;100.00;99164.69;5052642;28;20040;-82
2023/08/05 07:57:25;;;;;;;10.73;9.73;;;;;;;19.34;100.00;99156.09;5034296;28;20021;-82
2023/08/05 07:59:52;;;;;;;10.73;9.55;;;;;;;19.53;100.00;99171.06;5052816;28;20033;-82
2023/08/05 08:02:17;;;;;;;12.93;10.98;;;;;;;19.55;100.00;99163.00;5052292;28;20064;-82
2023/08/05 08:04:44;;;;;;;13.40;10.20;;;;;;;19.60;100.00;99156.34;5034715;28;20068;-82
2023/08/05 08:07:09;;;;;;;15.43;11.68;;;;;;;19.72;100.00;99174.69;5052488;28;20021;-82
2023/08/05 08:09:34;;;;;;;15.10;12.40;;;;;;;19.72;100.00;99167.63;5051349;28;20162;-82
2023/08/05 08:12:00;;;;;;;19.05;13.57;;;;;;;19.73;100.00;99164.00;5052674;28;20039;-82
2023/08/05 08:14:25;;;;;;;11.55;10.35;;;;;;;19.83;100.00;99178.03;5051873;28;20045;-82
2023/08/05 08:16:51;;;;;;;12.85;11.25;;;;;;;19.88;100.00;99174.94;5052031;28;20032;-82
2023/08/05 08:19:18;;;;;;;14.98;12.65;;;;;;;19.63;100.00;99126.19;5052345;28;20025;-82
2023/08/05 08:21:44;;;;;;;16.67;13.63;;;;;;;19.83;100.00;99156.88;5052466;28;20028;-81
2023/08/05 08:24:10;;;;;;;12.07;10.65;;;;;;;19.91;100.00;99150.88;5052524;28;20025;-82
2023/08/05 08:26:35;;;;;;;11.75;10.57;;;;;;;20.06;100.00;99165.31;5051973;28;20074;-83
2023/08/05 08:29:01;;;;;;;14.15;12.65;;;;;;;20.09;100.00;99150.97;5052358;28;20079;-84
2023/08/05 08:31:30;;;;;;;14.40;12.27;;;;;;;20.08;100.00;99133.44;5033840;28;20048;-84
2023/08/05 08:33:56;;;;;;;13.10;11.68;;;;;;;20.25;100.00;99150.34;5052907;28;20029;-85
2023/08/05 08:36:21;;;;;;;14.18;12.55;;;;;;;20.29;100.00;99139.34;5052157;28;20116;-84
2023/08/05 08:38:46;;;;;;;22.13;13.85;;;;;;;20.32;100.00;99136.41;5052289;28;20064;-84
2023/08/05 08:41:12;;;;;;;17.50;12.93;;;;;;;20.44;100.00;99145.81;5051985;28;20114;-84
2023/08/05 08:43:37;;;;;;;16.83;13.40;;;;;;;20.24;99.88;99094.00;5052199;28;20051;-84
2023/08/05 08:46:05;;;;;;;22.35;14.43;;;;;;;20.55;99.58;99128.94;5034690;28;20021;-84
2023/08/05 08:48:35;;;;;;;25.55;14.25;;;;;;;20.74;100.00;99135.94;5051968;28;20492;-84
2023/08/05 08:51:01;;;;;;;17.00;11.80;;;;;;;20.80;99.55;99131.88;5052231;28;20025;-84
2023/08/05 08:53:27;;;;;;;17.90;13.10;;;;;;;20.86;97.94;99139.22;5051790;28;20068;-84
2023/08/05 08:55:53;;;;;;;15.90;12.73;;;;;;;20.91;98.24;99132.50;5051899;28;20025;-84
2023/08/05 08:58:18;;;;;;;17.85;14.30;;;;;;;20.93;97.89;99138.44;5052158;28;20518;-84
2023/08/05 09:00:45;;;;;;;16.23;12.25;;;;;;;20.67;97.41;99111.06;5051221;28;20025;-84
2023/08/05 09:03:12;;;;;;;14.65;12.85;;;;;;;20.74;98.21;99119.25;5051834;28;20029;-84
2023/08/05 09:05:44;;;;;;;12.93;11.63;;;;;;;20.80;98.44;99131.88;5051486;28;20021;-85
2023/08/05 09:08:09;;;;;;;15.95;13.65;;;;;;;20.72;98.42;99121.19;5051430;28;20021;-86
2023/08/05 09:10:37;;;;;;;13.30;11.18;;;;;;;20.92;98.85;99146.56;5033290;28;20051;-90
2023/08/05 09:13:03;;;;;;;12.95;11.65;;;;;;;21.02;98.37;99162.34;5033182;28;20049;-89
2023/08/05 09:15:39;;;;;;;16.33;12.43;;;;;;;21.00;98.55;99157.22;5033038;28;20036;-89
2023/08/05 09:18:07;;;;;;;14.38;11.88;;;;;;;20.98;97.87;99158.34;5033502;28;20495;-90
2023/08/05 09:20:33;;;;;;;13.93;11.40;;;;;;;20.97;98.55;99146.09;5034907;28;20032;-90
2023/08/05 09:23:01;;;;;;;12.88;11.35;;;;;;;20.92;98.84;99141.25;5037172;28;20033;-90
2023/08/05 09:25:29;;;;;;;14.10;11.57;;;;;;;20.76;99.20;99120.72;5036588;28;20039;-90
2023/08/05 09:27:56;;;;;;;13.80;10.75;;;;;;;20.93;99.94;99154.34;5037163;28;20106;-89
2023/08/05 09:30:22;;;;;;;14.40;12.15;;;;;;;20.89;100.00;99145.03;5037245;28;20096;-90
2023/08/05 09:32:48;;;;;;;15.60;13.95;;;;;;;20.78;99.65;99142.59;5037044;28;20056;-90
2023/08/05 09:35:14;;;;;;;17.98;11.65;;;;;;;20.75;100.00;99140.25;5036741;28;20484;-90
2023/08/05 09:37:48;;;;;;;17.23;12.70;;;;;;;20.75;100.00;99156.13;5036954;28;20495;-89
2023/08/05 09:40:39;;;;;;;15.25;13.25;;;;;;;20.60;100.00;99161.06;5037164;28;20029;-90
2023/08/05 09:43:07;;;;;;;27.77;14.52;;;;;;;20.51;100.00;99159.31;5037379;28;20021;-90
2023/08/05 09:45:33;;;;;;;19.10;12.65;;;;;;;20.30;100.00;99140.16;5037137;28;20163;-90
2023/08/05 09:48:09;;;;;;;29.60;14.23;;;;;;;20.31;100.00;99145.34;5036616;28;20025;-90
2023/08/05 09:50:38;;;;;;;20.00;12.18;;;;;;;20.42;100.00;99160.16;5031999;28;20372;-90
2023/08/05 09:53:08;;;;;;;21.60;13.43;;;;;;;20.41;100.00;99147.94;5015872;28;20133;-89
2023/08/05 09:55:37;;;;;;;16.17;12.82;;;;;;;20.24;100.00;99119.63;5016072;28;20401;-90
2023/08/05 09:58:13;;;;;;;20.10;14.88;;;;;;;20.41;100.00;99161.16;5015873;28;20037;-89
2023/08/05 10:00:43;;;;;;;17.95;12.82;;;;;;;20.34;100.00;99170.63;5016494;28;20492;-89
2023/08/05 10:03:13;;;;;;;19.05;13.68;;;;;;;20.31;100.00;99174.44;5015555;28;20041;-90
2023/08/05 10:05:41;;;;;;;16.90;14.77;;;;;;;20.28;100.00;99185.28;5015377;28;20033;-90
2023/08/05 10:08:07;;;;;;;17.23;13.52;;;;;;;20.19;100.00;99171.13;5016339;28;20124;-90
2023/08/05 10:10:35;;;;;;;19.48;14.73;;;;;;;20.02;100.00;99144.59;5016376;28;20600;-90
2023/08/05 10:13:08;;;;;;;20.02;14.93;;;;;;;20.22;100.00;99177.91;5015977;28;20053;-90
2023/08/05 10:15:37;;;;;;;20.08;14.15;;;;;;;20.19;100.00;99175.59;5015684;28;20040;-90
2023/08/05 10:18:08;;;;;;;19.00;14.27;;;;;;;20.10;100.00;99160.56;5017438;28;20033;-90
2023/08/05 10:20:37;;;;;;;19.40;13.88;;;;;;;20.09;100.00;99164.19;5019239;28;20083;-90
2023/08/05 10:23:07;;;;;;;18.17;15.18;;;;;;;19.95;100.00;99128.47;5057893;28;20092;-88
2023/08/05 10:26:03;;;;;;;18.73;15.77;;;;;;;20.07;100.00;99159.06;5061046;28;20029;-90
2023/08/05 10:28:28;;;;;;;20.63;16.13;;;;;;;20.05;100.00;99162.81;5059520;28;20025;-90
2023/08/05 10:30:54;;;;;;;19.10;16.05;;;;;;;19.99;100.00;99144.88;5054911;28;20029;-89
2023/08/05 10:33:20;;;;;;;18.35;15.85;;;;;;;20.00;100.00;99143.91;5047593;28;20037;-89
2023/08/05 10:35:48;;;;;;;17.48;15.68;;;;;;;19.79;100.00;99117.66;5045030;28;20069;-88
2023/08/05 10:38:22;;;;;;;17.60;15.90;;;;;;;19.76;100.00;99128.50;5017985;28;20037;-87
2023/08/05 10:41:03;;;;;;;16.85;15.07;;;;;;;19.76;100.00;99142.56;5031369;28;20095;-87
2023/08/05 10:43:31;;;;;;;16.00;14.32;;;;;;;19.96;100.00;99171.59;5030751;28;20643;-87
2023/08/05 10:45:58;;;;;;;13.95;12.75;;;;;;;19.82;100.00;99138.53;5030777;28;20053;-85
2023/08/05 10:48:34;;;;;;;16.55;14.88;;;;;;;20.00;100.00;99170.34;5031013;28;20542;-85
2023/08/05 10:51:11;;;;;;;16.13;14.32;;;;;;;19.96;100.00;99156.56;5030882;28;20057;-85
2023/08/05 10:53:37;;;;;;;21.23;15.52;;;;;;;19.70;100.00;99114.06;5030577;28;20488;-85
2023/08/05 10:56:10;;;;;;;21.00;17.23;;;;;;;19.97;100.00;99139.72;5030963;28;20043;-85
2023/08/05 10:58:37;;;;;;;20.90;16.90;;;;;;;19.94;100.00;99138.22;5030767;28;20036;-85
2023/08/05 11:01:03;;;;;;;24.08;17.58;;;;;;;20.03;100.00;99155.03;5030981;28;20460;-84
2023/08/05 11:03:42;;;;;;;16.92;15.30;;;;;;;20.00;100.00;99151.84;5033773;28;20041;-86
2023/08/05 11:06:09;;;;;;;21.67;18.73;;;;;;;19.84;100.00;99124.19;5053116;28;20527;-85
2023/08/05 11:08:36;;;;;;;18.45;16.50;;;;;;;20.01;100.00;99150.84;5052868;28;20438;-86
2023/08/05 11:11:07;;;;;;;19.00;16.92;;;;;;;19.97;100.00;99136.25;5052890;28;20079;-85